createdAt,value
2019-03-06T00:00:07.305Z,0.00
2019-03-06T00:01:07.270Z,0.00
2019-03-06T00:02:07.234Z,0.00
2019-03-06T00:03:07.204Z,0.00
2019-03-06T00:04:07.176Z,0.00
2019-03-06T00:05:07.138Z,0.00
2019-03-06T00:06:16.240Z,0.00
2019-03-06T00:07:07.074Z,0.00
2019-03-06T00:08:07.038Z,0.00
2019-03-06T00:09:07.007Z,0.00
2019-03-06T00:10:06.971Z,0.00
2019-03-06T00:11:06.938Z,0.00
2019-03-06T00:12:06.905Z,0.00
2019-03-06T00:13:06.872Z,0.00
2019-03-06T00:14:06.839Z,0.00
2019-03-06T00:15:06.806Z,0.00
2019-03-06T00:16:06.777Z,0.00
2019-03-06T00:17:06.741Z,0.00
2019-03-06T00:18:06.710Z,0.00
2019-03-06T00:19:06.675Z,0.00
2019-03-06T00:20:06.640Z,0.00
2019-03-06T00:21:06.609Z,0.00
2019-03-06T00:22:06.575Z,0.00
2019-03-06T00:23:06.542Z,0.00
2019-03-06T00:24:06.509Z,0.00
2019-03-06T00:25:06.475Z,0.00
2019-03-06T00:26:06.443Z,0.00
2019-03-06T00:27:06.409Z,0.00
2019-03-06T00:28:06.377Z,0.00
2019-03-06T00:29:06.344Z,0.00
2019-03-06T00:30:06.352Z,0.00
2019-03-06T00:31:06.277Z,0.00
2019-03-06T00:32:06.243Z,0.00
2019-03-06T00:33:06.239Z,0.00
2019-03-06T00:34:06.177Z,0.00
2019-03-06T00:35:06.144Z,0.00
2019-03-06T00:36:06.113Z,0.00
2019-03-06T00:37:06.078Z,0.00
2019-03-06T00:38:06.045Z,0.00
2019-03-06T00:39:06.015Z,0.00
2019-03-06T00:40:05.981Z,0.00
2019-03-06T00:41:05.946Z,0.00
2019-03-06T00:42:05.912Z,0.00
2019-03-06T00:43:05.891Z,0.00
2019-03-06T00:44:05.845Z,0.00
2019-03-06T00:45:05.813Z,0.00
2019-03-06T00:46:05.783Z,0.00
2019-03-06T00:47:05.746Z,0.00
2019-03-06T00:48:05.714Z,0.00
2019-03-06T00:49:05.681Z,0.00
2019-03-06T00:50:05.647Z,0.00
2019-03-06T00:51:05.613Z,0.00
2019-03-06T00:52:05.582Z,0.00
2019-03-06T00:53:05.547Z,0.00
2019-03-06T00:54:05.514Z,0.00
2019-03-06T00:55:05.481Z,0.00
2019-03-06T00:56:05.447Z,0.00
2019-03-06T00:57:05.415Z,0.00
2019-03-06T00:58:05.381Z,0.00
2019-03-06T00:59:05.348Z,0.00
2019-03-06T01:00:05.315Z,0.00
2019-03-06T01:01:05.283Z,0.00
2019-03-06T01:02:05.247Z,0.00
2019-03-06T01:03:05.214Z,0.00
2019-03-06T01:04:05.183Z,0.00
2019-03-06T01:05:05.149Z,0.00
2019-03-06T01:06:05.115Z,0.00
2019-03-06T01:07:05.082Z,0.00
2019-03-06T01:08:05.053Z,0.00
2019-03-06T01:09:05.017Z,0.00
2019-03-06T01:10:04.982Z,0.00
2019-03-06T01:11:04.950Z,0.00
2019-03-06T01:12:04.915Z,0.00
2019-03-06T01:13:04.882Z,0.00
2019-03-06T01:14:04.849Z,0.00
2019-03-06T01:15:04.816Z,0.00
2019-03-06T01:16:04.782Z,0.00
2019-03-06T01:17:04.748Z,0.00
2019-03-06T01:18:04.717Z,0.00
2019-03-06T01:19:04.684Z,0.00
2019-03-06T01:20:04.649Z,0.00
2019-03-06T01:21:04.622Z,0.00
2019-03-06T01:22:04.581Z,0.00
2019-03-06T01:23:04.554Z,0.00
2019-03-06T01:24:04.518Z,0.00
2019-03-06T01:25:04.483Z,0.00
2019-03-06T01:26:04.447Z,0.00
2019-03-06T01:27:04.423Z,0.00
2019-03-06T01:28:04.383Z,0.00
2019-03-06T01:29:04.350Z,0.00
2019-03-06T01:30:04.318Z,0.00
2019-03-06T01:31:04.284Z,0.00
2019-03-06T01:32:04.250Z,0.00
2019-03-06T01:33:04.216Z,0.00
2019-03-06T01:34:04.184Z,0.00
2019-03-06T01:35:04.150Z,0.00
2019-03-06T01:36:04.117Z,0.00
2019-03-06T01:37:04.086Z,0.00
2019-03-06T01:38:04.051Z,0.00
2019-03-06T01:39:04.015Z,0.00
2019-03-06T01:40:03.988Z,0.00
2019-03-06T01:41:03.950Z,0.00
2019-03-06T01:42:03.917Z,0.00
2019-03-06T01:43:03.883Z,0.00
2019-03-06T01:44:03.849Z,0.00
2019-03-06T01:45:03.815Z,0.00
2019-03-06T01:46:03.782Z,0.00
2019-03-06T01:47:03.749Z,0.00
2019-03-06T01:48:03.714Z,0.00
2019-03-06T01:49:03.682Z,0.00
2019-03-06T01:50:03.649Z,0.00
2019-03-06T01:51:03.615Z,0.00
2019-03-06T01:52:03.582Z,0.00
2019-03-06T01:53:03.549Z,0.00
2019-03-06T01:54:03.515Z,0.00
2019-03-06T01:55:03.480Z,0.00
2019-03-06T01:56:03.447Z,0.00
2019-03-06T01:57:03.414Z,0.00
2019-03-06T01:58:03.381Z,0.00
2019-03-06T01:59:03.347Z,0.00
2019-03-06T02:00:03.313Z,0.00
2019-03-06T02:01:03.282Z,0.00
2019-03-06T02:02:03.247Z,0.00
2019-03-06T02:03:03.214Z,0.00
2019-03-06T02:04:03.178Z,0.00
2019-03-06T02:05:03.150Z,0.00
2019-03-06T02:06:03.114Z,0.00
2019-03-06T02:07:03.079Z,0.00
2019-03-06T02:08:03.045Z,0.00
2019-03-06T02:09:03.013Z,0.00
2019-03-06T02:10:02.978Z,0.00
2019-03-06T02:11:02.946Z,0.00
2019-03-06T02:12:02.912Z,0.00
2019-03-06T02:13:02.880Z,0.00
2019-03-06T02:14:02.843Z,0.00
2019-03-06T02:15:02.814Z,0.00
2019-03-06T02:16:02.777Z,0.00
2019-03-06T02:17:02.747Z,0.00
2019-03-06T02:18:02.710Z,0.00
2019-03-06T02:19:02.678Z,0.00
2019-03-06T02:20:02.643Z,0.00
2019-03-06T02:21:02.611Z,0.00
2019-03-06T02:22:02.576Z,0.00
2019-03-06T02:23:02.541Z,0.00
2019-03-06T02:24:02.510Z,0.00
2019-03-06T02:25:02.475Z,0.00
2019-03-06T02:26:02.442Z,0.00
2019-03-06T02:27:02.410Z,0.00
2019-03-06T02:28:02.375Z,0.00
2019-03-06T02:29:02.342Z,0.00
2019-03-06T02:30:02.310Z,0.00
2019-03-06T02:31:02.273Z,0.00
2019-03-06T02:32:02.242Z,0.00
2019-03-06T02:33:02.207Z,0.00
2019-03-06T02:34:02.174Z,0.00
2019-03-06T02:35:02.210Z,0.00
2019-03-06T02:36:02.109Z,0.00
2019-03-06T02:37:02.075Z,0.00
2019-03-06T02:38:02.042Z,0.00
2019-03-06T02:39:02.009Z,0.00
2019-03-06T02:40:01.975Z,0.00
2019-03-06T02:41:01.940Z,0.00
2019-03-06T02:42:01.904Z,0.00
2019-03-06T02:43:01.874Z,0.00
2019-03-06T02:44:01.842Z,0.00
2019-03-06T02:45:01.806Z,0.00
2019-03-06T02:46:01.772Z,0.00
2019-03-06T02:47:01.738Z,0.00
2019-03-06T02:48:01.706Z,0.00
2019-03-06T02:49:01.672Z,0.00
2019-03-06T02:50:01.659Z,0.00
2019-03-06T02:51:01.614Z,0.00
2019-03-06T02:52:01.640Z,0.00
2019-03-06T02:53:01.538Z,0.00
2019-03-06T02:54:01.504Z,0.00
2019-03-06T02:55:01.470Z,0.00
2019-03-06T02:56:01.437Z,0.00
2019-03-06T02:57:01.406Z,0.00
2019-03-06T02:58:01.370Z,0.00
2019-03-06T02:59:01.338Z,0.00
2019-03-06T03:00:01.314Z,0.00
2019-03-06T03:01:01.270Z,0.00
2019-03-06T03:02:01.241Z,0.00
2019-03-06T03:03:01.205Z,0.00
2019-03-06T03:04:01.170Z,0.00
2019-03-06T03:05:01.137Z,0.00
2019-03-06T03:06:01.105Z,0.00
2019-03-06T03:07:01.069Z,0.00
2019-03-06T03:08:01.040Z,0.00
2019-03-06T03:09:01.002Z,0.00
2019-03-06T03:10:00.968Z,0.00
2019-03-06T03:11:00.935Z,0.00
2019-03-06T03:12:00.902Z,0.00
2019-03-06T03:13:00.869Z,0.00
2019-03-06T03:14:00.834Z,0.00
2019-03-06T03:15:00.803Z,0.00
2019-03-06T03:16:00.769Z,0.00
2019-03-06T03:17:00.735Z,0.00
2019-03-06T03:18:00.702Z,0.00
2019-03-06T03:19:00.668Z,0.00
2019-03-06T03:20:00.634Z,0.00
2019-03-06T03:21:00.608Z,0.00
2019-03-06T03:22:00.567Z,0.00
2019-03-06T03:23:00.536Z,0.00
2019-03-06T03:24:00.501Z,0.00
2019-03-06T03:25:00.492Z,0.00
2019-03-06T03:26:00.433Z,0.00
2019-03-06T03:27:00.406Z,0.00
2019-03-06T03:28:00.369Z,0.00
2019-03-06T03:29:00.333Z,0.00
2019-03-06T03:30:00.649Z,0.00
2019-03-06T03:31:00.266Z,0.00
2019-03-06T03:32:00.235Z,0.00
2019-03-06T03:33:00.201Z,0.00
2019-03-06T03:34:00.179Z,0.00
2019-03-06T03:35:00.609Z,0.00
2019-03-06T03:36:00.099Z,0.00
2019-03-06T03:37:00.067Z,0.00
2019-03-06T03:38:00.032Z,0.00
2019-03-06T03:39:00.000Z,0.00
2019-03-06T03:39:59.964Z,0.00
2019-03-06T03:40:59.933Z,0.00
2019-03-06T03:41:59.898Z,0.00
2019-03-06T03:42:59.864Z,0.00
2019-03-06T03:43:59.833Z,0.00
2019-03-06T03:44:59.800Z,0.00
2019-03-06T03:45:59.765Z,0.00
2019-03-06T03:46:59.733Z,0.00
2019-03-06T03:47:59.698Z,0.00
2019-03-06T03:48:59.665Z,0.00
2019-03-06T03:49:59.630Z,0.00
2019-03-06T03:50:59.598Z,0.00
2019-03-06T03:51:59.566Z,0.00
2019-03-06T03:52:59.535Z,0.00
2019-03-06T03:53:59.497Z,0.00
2019-03-06T03:54:59.465Z,0.00
2019-03-06T03:55:59.442Z,0.00
2019-03-06T03:56:59.397Z,0.00
2019-03-06T03:57:59.370Z,0.00
2019-03-06T03:58:59.331Z,0.00
2019-03-06T03:59:59.298Z,0.00
2019-03-06T04:00:59.264Z,0.00
2019-03-06T04:01:59.232Z,0.00
2019-03-06T04:02:59.196Z,0.00
2019-03-06T04:03:59.163Z,0.00
2019-03-06T04:04:59.129Z,0.00
2019-03-06T04:05:59.096Z,0.00
2019-03-06T04:06:59.063Z,0.00
2019-03-06T04:07:59.029Z,0.00
2019-03-06T04:08:58.997Z,0.00
2019-03-06T04:09:58.963Z,0.00
2019-03-06T04:10:58.932Z,0.00
2019-03-06T04:11:58.899Z,0.00
2019-03-06T04:12:58.864Z,0.00
2019-03-06T04:13:58.829Z,0.00
2019-03-06T04:14:58.796Z,0.00
2019-03-06T04:15:58.762Z,0.00
2019-03-06T04:16:58.733Z,0.00
2019-03-06T04:17:58.695Z,0.00
2019-03-06T04:18:58.665Z,0.00
2019-03-06T04:19:58.631Z,0.00
2019-03-06T04:20:58.595Z,0.00
2019-03-06T04:21:58.561Z,0.00
2019-03-06T04:22:58.532Z,0.00
2019-03-06T04:23:58.496Z,0.00
2019-03-06T04:24:58.461Z,0.00
2019-03-06T04:25:58.426Z,0.00
2019-03-06T04:26:58.392Z,0.00
2019-03-06T04:27:58.361Z,0.00
2019-03-06T04:28:58.326Z,0.00
2019-03-06T04:29:58.293Z,0.00
2019-03-06T04:30:58.261Z,0.00
2019-03-06T04:31:58.226Z,0.00
2019-03-06T04:32:58.194Z,0.00
2019-03-06T04:33:58.161Z,0.00
2019-03-06T04:34:58.126Z,0.00
2019-03-06T04:35:58.092Z,0.00
2019-03-06T04:36:58.069Z,0.00
2019-03-06T04:37:58.024Z,0.00
2019-03-06T04:38:57.992Z,0.00
2019-03-06T04:39:57.958Z,0.00
2019-03-06T04:40:57.925Z,0.00
2019-03-06T04:41:57.894Z,0.00
2019-03-06T04:42:57.860Z,0.00
2019-03-06T04:43:57.823Z,0.00
2019-03-06T04:44:57.790Z,0.00
2019-03-06T04:45:57.757Z,0.00
2019-03-06T04:46:57.724Z,0.00
2019-03-06T04:47:57.689Z,0.00
2019-03-06T04:48:57.660Z,0.00
2019-03-06T04:49:57.623Z,0.00
2019-03-06T04:50:57.603Z,0.00
2019-03-06T04:51:57.557Z,0.00
2019-03-06T04:52:57.523Z,0.00
2019-03-06T04:53:57.486Z,0.00
2019-03-06T04:54:57.455Z,0.00
2019-03-06T04:55:57.420Z,0.00
2019-03-06T04:56:57.387Z,0.00
2019-03-06T04:57:57.353Z,0.00
2019-03-06T04:58:57.318Z,0.00
2019-03-06T04:59:57.287Z,0.00
2019-03-06T05:00:57.253Z,0.00
2019-03-06T05:01:57.218Z,0.00
2019-03-06T05:02:57.185Z,0.00
2019-03-06T05:03:57.152Z,0.00
2019-03-06T05:04:57.119Z,0.00
2019-03-06T05:05:57.083Z,0.00
2019-03-06T05:06:57.052Z,0.00
2019-03-06T05:07:57.017Z,0.00
2019-03-06T05:08:56.982Z,0.00
2019-03-06T05:09:56.949Z,0.00
2019-03-06T05:10:56.915Z,0.00
2019-03-06T05:11:56.881Z,0.00
2019-03-06T05:12:56.848Z,0.00
2019-03-06T05:13:56.814Z,0.00
2019-03-06T05:14:56.779Z,4.00
2019-03-06T05:15:56.749Z,4.00
2019-03-06T05:16:56.717Z,0.00
2019-03-06T05:17:56.682Z,4.00
2019-03-06T05:18:56.644Z,4.00
2019-03-06T05:19:56.612Z,4.00
2019-03-06T05:20:56.578Z,4.00
2019-03-06T05:21:56.544Z,4.00
2019-03-06T05:22:56.509Z,8.00
2019-03-06T05:23:56.479Z,8.00
2019-03-06T05:24:56.443Z,8.00
2019-03-06T05:25:56.409Z,12.00
2019-03-06T05:26:56.375Z,12.00
2019-03-06T05:27:56.341Z,16.00
2019-03-06T05:28:56.307Z,16.00
2019-03-06T05:29:56.272Z,20.00
2019-03-06T05:30:56.238Z,24.00
2019-03-06T05:31:56.206Z,28.00
2019-03-06T05:32:56.172Z,40.00
2019-03-06T05:33:56.137Z,44.00
2019-03-06T05:34:56.103Z,52.00
2019-03-06T05:35:56.072Z,64.00
2019-03-06T05:36:56.040Z,76.00
2019-03-06T05:37:56.003Z,88.00
2019-03-06T05:38:55.970Z,108.00
2019-03-06T05:39:55.934Z,124.00
2019-03-06T05:40:55.902Z,148.00
2019-03-06T05:41:55.870Z,176.00
2019-03-06T05:42:55.833Z,204.00
2019-03-06T05:43:55.799Z,232.00
2019-03-06T05:44:55.766Z,256.00
2019-03-06T05:45:55.732Z,276.00
2019-03-06T05:46:55.697Z,292.00
2019-03-06T05:47:55.667Z,308.00
2019-03-06T05:48:55.633Z,320.00
2019-03-06T05:49:55.598Z,332.00
2019-03-06T05:50:55.563Z,352.00
2019-03-06T05:51:55.530Z,376.00
2019-03-06T05:52:55.497Z,404.00
2019-03-06T05:53:55.463Z,440.00
2019-03-06T05:54:55.430Z,480.00
2019-03-06T05:55:55.397Z,528.00
2019-03-06T05:56:55.363Z,576.00
2019-03-06T05:57:55.330Z,616.00
2019-03-06T05:58:55.296Z,648.00
2019-03-06T05:59:55.262Z,688.00
2019-03-06T06:00:55.229Z,732.00
2019-03-06T06:01:55.194Z,788.00
2019-03-06T06:02:55.163Z,840.00
2019-03-06T06:03:55.141Z,904.00
2019-03-06T06:04:55.095Z,976.00
2019-03-06T06:05:55.060Z,1056.00
2019-03-06T06:06:55.027Z,1140.00
2019-03-06T06:07:54.994Z,1228.00
2019-03-06T06:08:54.961Z,1308.00
2019-03-06T06:09:54.927Z,1384.00
2019-03-06T06:10:54.894Z,1464.00
2019-03-06T06:11:54.860Z,1548.00
2019-03-06T06:12:54.827Z,1640.00
2019-03-06T06:13:54.794Z,1756.00
2019-03-06T06:14:54.760Z,1888.00
2019-03-06T06:15:54.727Z,2056.00
2019-03-06T06:16:55.627Z,2240.00
2019-03-06T06:17:54.662Z,2412.00
2019-03-06T06:18:54.627Z,2536.00
2019-03-06T06:19:54.596Z,2632.00
2019-03-06T06:20:54.561Z,2692.00
2019-03-06T06:21:54.527Z,2760.00
2019-03-06T06:22:54.493Z,2836.00
2019-03-06T06:23:54.460Z,2920.00
2019-03-06T06:24:54.428Z,3020.00
2019-03-06T06:25:54.398Z,3128.00
2019-03-06T06:26:54.360Z,3260.00
2019-03-06T06:27:54.328Z,3404.00
2019-03-06T06:28:54.294Z,3552.00
2019-03-06T06:29:54.263Z,3724.00
2019-03-06T06:30:54.228Z,3904.00
2019-03-06T06:31:54.196Z,4084.00
2019-03-06T06:32:54.163Z,4244.00
2019-03-06T06:33:54.129Z,4392.00
2019-03-06T06:34:54.099Z,4532.00
2019-03-06T06:35:54.065Z,4668.00
2019-03-06T06:36:54.032Z,4796.00
2019-03-06T06:37:53.996Z,4936.00
2019-03-06T06:38:53.964Z,5072.00
2019-03-06T06:39:53.934Z,5208.00
2019-03-06T06:40:53.900Z,5356.00
2019-03-06T06:41:53.865Z,5492.00
2019-03-06T06:42:53.833Z,5640.00
2019-03-06T06:43:53.800Z,5816.00
2019-03-06T06:44:53.770Z,6044.00
2019-03-06T06:45:53.735Z,6300.00
2019-03-06T06:46:53.702Z,6592.00
2019-03-06T06:47:53.669Z,6876.00
2019-03-06T06:48:53.639Z,7212.00
2019-03-06T06:49:53.604Z,7516.00
2019-03-06T06:51:01.277Z,7608.00
2019-03-06T06:51:53.540Z,7752.00
2019-03-06T06:52:53.509Z,8044.00
2019-03-06T06:53:53.477Z,8192.00
2019-03-06T06:54:53.443Z,8208.00
2019-03-06T06:55:53.412Z,8668.00
2019-03-06T06:56:53.381Z,8984.00
2019-03-06T06:57:53.347Z,9212.00
2019-03-06T06:58:53.317Z,9332.00
2019-03-06T06:59:53.284Z,9404.00
2019-03-06T07:00:53.254Z,9500.00
2019-03-06T07:01:53.224Z,9528.00
2019-03-06T07:02:53.191Z,9412.00
2019-03-06T07:03:53.159Z,9260.00
2019-03-06T07:04:53.130Z,9024.00
2019-03-06T07:05:53.096Z,8808.00
2019-03-06T07:06:53.065Z,8736.00
2019-03-06T07:07:53.035Z,8732.00
2019-03-06T07:08:53.003Z,8824.00
2019-03-06T07:09:52.973Z,8980.00
2019-03-06T07:10:52.942Z,9180.00
2019-03-06T07:11:52.911Z,9400.00
2019-03-06T07:12:52.882Z,9652.00
2019-03-06T07:13:52.850Z,9832.00
2019-03-06T07:14:52.822Z,9996.00
2019-03-06T07:15:52.791Z,10220.00
2019-03-06T07:16:52.760Z,10460.00
2019-03-06T07:17:52.729Z,10652.00
2019-03-06T07:18:52.697Z,10824.00
2019-03-06T07:19:52.669Z,10988.00
2019-03-06T07:20:52.636Z,11080.00
2019-03-06T07:21:52.605Z,11212.00
2019-03-06T07:22:52.577Z,11388.00
2019-03-06T07:23:52.545Z,11572.00
2019-03-06T07:24:52.515Z,11752.00
2019-03-06T07:25:52.484Z,11888.00
2019-03-06T07:26:52.454Z,11996.00
2019-03-06T07:27:52.423Z,12068.00
2019-03-06T07:28:52.393Z,12116.00
2019-03-06T07:29:52.364Z,12204.00
2019-03-06T07:30:52.334Z,12312.00
2019-03-06T07:31:52.312Z,12468.00
2019-03-06T07:32:52.275Z,12672.00
2019-03-06T07:33:52.243Z,12944.00
2019-03-06T07:34:52.213Z,13200.00
2019-03-06T07:35:52.183Z,13400.00
2019-03-06T07:36:52.153Z,13600.00
2019-03-06T07:37:52.122Z,13808.00
2019-03-06T07:38:52.094Z,14060.00
2019-03-06T07:39:52.064Z,14420.00
2019-03-06T07:40:52.033Z,14824.00
2019-03-06T07:41:52.003Z,15232.00
2019-03-06T07:42:51.976Z,15628.00
2019-03-06T07:43:51.952Z,16028.00
2019-03-06T07:44:51.915Z,16576.00
2019-03-06T07:45:51.884Z,17056.00
2019-03-06T07:46:51.857Z,17472.00
2019-03-06T07:47:51.828Z,17824.00
2019-03-06T07:48:51.802Z,18240.00
2019-03-06T07:49:51.768Z,18688.00
2019-03-06T07:50:51.737Z,18976.00
2019-03-06T07:51:51.710Z,19168.00
2019-03-06T07:52:51.683Z,19040.00
2019-03-06T07:53:51.651Z,18400.00
2019-03-06T07:54:51.621Z,18016.00
2019-03-06T07:55:51.592Z,17664.00
2019-03-06T07:56:51.563Z,17568.00
2019-03-06T07:57:51.537Z,17728.00
2019-03-06T07:58:51.506Z,17888.00
2019-03-06T07:59:51.477Z,18304.00
2019-03-06T08:00:51.448Z,18912.00
2019-03-06T08:01:51.420Z,19072.00
2019-03-06T08:02:51.393Z,19584.00
2019-03-06T08:03:51.362Z,20064.00
2019-03-06T08:04:51.332Z,20992.00
2019-03-06T08:05:51.304Z,21472.00
2019-03-06T08:06:51.275Z,20896.00
2019-03-06T08:07:51.247Z,21440.00
2019-03-06T08:08:51.219Z,22080.00
2019-03-06T08:09:51.192Z,21792.00
2019-03-06T08:10:51.160Z,21792.00
2019-03-06T08:11:51.133Z,21920.00
2019-03-06T08:12:51.105Z,21920.00
2019-03-06T08:13:51.074Z,21472.00
2019-03-06T08:14:51.047Z,21440.00
2019-03-06T08:15:51.018Z,21376.00
2019-03-06T08:16:50.990Z,20928.00
2019-03-06T08:17:50.962Z,20960.00
2019-03-06T08:18:50.934Z,21312.00
2019-03-06T08:19:50.908Z,21504.00
2019-03-06T08:20:50.879Z,21344.00
2019-03-06T08:21:50.851Z,21728.00
2019-03-06T08:22:50.826Z,21760.00
2019-03-06T08:23:50.795Z,22464.00
2019-03-06T08:24:50.768Z,22080.00
2019-03-06T08:25:50.740Z,21824.00
2019-03-06T08:26:50.711Z,21472.00
2019-03-06T08:27:50.687Z,21088.00
2019-03-06T08:28:50.654Z,21216.00
2019-03-06T08:29:50.625Z,21504.00
2019-03-06T08:30:50.599Z,21664.00
2019-03-06T08:31:50.570Z,21536.00
2019-03-06T08:32:50.544Z,21216.00
2019-03-06T08:33:50.516Z,20928.00
2019-03-06T08:34:50.486Z,20864.00
2019-03-06T08:35:50.461Z,20928.00
2019-03-06T08:36:50.431Z,20896.00
2019-03-06T08:37:50.404Z,20896.00
2019-03-06T08:38:50.375Z,20992.00
2019-03-06T08:39:50.350Z,21344.00
2019-03-06T08:40:50.321Z,21536.00
2019-03-06T08:41:50.291Z,21664.00
2019-03-06T08:42:50.262Z,21408.00
2019-03-06T08:43:50.236Z,21184.00
2019-03-06T08:44:50.254Z,21184.00
2019-03-06T08:45:50.179Z,21888.00
2019-03-06T08:46:50.150Z,22560.00
2019-03-06T08:47:51.663Z,23520.00
2019-03-06T08:48:50.099Z,24544.00
2019-03-06T08:49:50.070Z,25376.00
2019-03-06T08:50:50.051Z,25984.00
2019-03-06T08:51:50.016Z,26560.00
2019-03-06T08:52:49.988Z,26720.00
2019-03-06T08:53:49.960Z,26368.00
2019-03-06T08:54:49.937Z,26048.00
2019-03-06T08:55:49.908Z,25280.00
2019-03-06T08:56:49.879Z,25216.00
2019-03-06T08:57:49.852Z,24864.00
2019-03-06T08:58:49.823Z,23392.00
2019-03-06T08:59:49.797Z,24160.00
2019-03-06T09:00:49.772Z,23872.00
2019-03-06T09:01:49.743Z,24096.00
2019-03-06T09:02:49.716Z,24288.00
2019-03-06T09:03:49.691Z,23872.00
2019-03-06T09:04:49.663Z,24032.00
2019-03-06T09:05:49.636Z,24352.00
2019-03-06T09:06:49.608Z,24832.00
2019-03-06T09:07:49.584Z,25632.00
2019-03-06T09:08:49.561Z,25536.00
2019-03-06T09:09:49.531Z,25280.00
2019-03-06T09:10:49.501Z,24704.00
2019-03-06T09:11:49.475Z,24288.00
2019-03-06T09:12:49.447Z,24768.00
2019-03-06T09:13:49.421Z,24640.00
2019-03-06T09:14:49.396Z,24608.00
2019-03-06T09:15:49.368Z,24640.00
2019-03-06T09:16:49.340Z,24704.00
2019-03-06T09:17:49.314Z,24672.00
2019-03-06T09:18:49.287Z,24832.00
2019-03-06T09:19:49.260Z,25248.00
2019-03-06T09:20:49.240Z,25600.00
2019-03-06T09:21:49.207Z,25824.00
2019-03-06T09:22:49.179Z,26048.00
2019-03-06T09:23:49.154Z,25920.00
2019-03-06T09:24:49.126Z,26272.00
2019-03-06T09:25:49.101Z,26400.00
2019-03-06T09:26:49.073Z,26656.00
2019-03-06T09:27:49.046Z,26944.00
2019-03-06T09:28:49.021Z,26464.00
2019-03-06T09:29:48.996Z,27328.00
2019-03-06T09:30:48.968Z,27712.00
2019-03-06T09:31:48.940Z,27648.00
2019-03-06T09:32:48.914Z,26752.00
2019-03-06T09:33:48.887Z,26240.00
2019-03-06T09:34:48.860Z,25504.00
2019-03-06T09:35:48.835Z,25216.00
2019-03-06T09:36:48.809Z,24960.00
2019-03-06T09:37:48.781Z,24992.00
2019-03-06T09:38:48.755Z,25152.00
2019-03-06T09:39:48.728Z,25536.00
2019-03-06T09:40:48.705Z,25696.00
2019-03-06T09:41:48.675Z,25440.00
2019-03-06T09:42:48.649Z,25056.00
2019-03-06T09:43:48.623Z,24736.00
2019-03-06T09:44:48.597Z,24448.00
2019-03-06T09:45:48.571Z,24640.00
2019-03-06T09:46:48.543Z,25216.00
2019-03-06T09:47:48.516Z,26112.00
2019-03-06T09:48:48.488Z,27008.00
2019-03-06T09:49:48.463Z,27648.00
2019-03-06T09:50:48.436Z,28128.00
2019-03-06T09:51:48.409Z,28480.00
2019-03-06T09:52:48.383Z,28736.00
2019-03-06T09:53:48.354Z,29120.00
2019-03-06T09:54:48.328Z,29184.00
2019-03-06T09:55:48.303Z,29312.00
2019-03-06T09:56:48.275Z,29248.00
2019-03-06T09:57:48.250Z,28768.00
2019-03-06T09:58:48.270Z,28544.00
2019-03-06T09:59:48.198Z,28288.00
2019-03-06T10:00:48.171Z,28288.00
2019-03-06T10:01:48.145Z,28384.00
2019-03-06T10:02:48.120Z,28448.00
2019-03-06T10:03:48.092Z,28320.00
2019-03-06T10:04:48.065Z,27616.00
2019-03-06T10:05:48.038Z,27104.00
2019-03-06T10:06:48.013Z,26688.00
2019-03-06T10:07:47.989Z,26592.00
2019-03-06T10:08:47.964Z,26912.00
2019-03-06T10:09:47.934Z,26848.00
2019-03-06T10:10:57.256Z,27264.00
2019-03-06T10:11:47.883Z,28576.00
2019-03-06T10:12:47.893Z,29280.00
2019-03-06T10:13:47.831Z,30240.00
2019-03-06T10:14:47.805Z,30560.00
2019-03-06T10:15:47.779Z,30560.00
2019-03-06T10:16:49.054Z,31296.00
2019-03-06T10:17:47.725Z,31424.00
2019-03-06T10:18:47.699Z,29088.00
2019-03-06T10:19:47.675Z,28768.00
2019-03-06T10:20:47.647Z,28576.00
2019-03-06T10:21:47.620Z,29376.00
2019-03-06T10:22:48.970Z,31040.00
2019-03-06T10:23:49.019Z,32416.00
2019-03-06T10:24:47.542Z,30784.00
2019-03-06T10:25:47.516Z,32128.00
2019-03-06T10:26:47.491Z,31040.00
2019-03-06T10:27:47.463Z,30560.00
2019-03-06T10:28:47.437Z,30592.00
2019-03-06T10:29:47.410Z,30848.00
2019-03-06T10:30:47.384Z,30304.00
2019-03-06T10:31:47.356Z,30272.00
2019-03-06T10:32:47.331Z,30976.00
2019-03-06T10:33:47.305Z,30528.00
2019-03-06T10:34:47.277Z,30144.00
2019-03-06T10:35:47.253Z,29888.00
2019-03-06T10:36:47.292Z,28992.00
2019-03-06T10:37:47.202Z,27456.00
2019-03-06T10:38:47.175Z,26112.00
2019-03-06T10:39:47.150Z,25600.00
2019-03-06T10:40:47.131Z,25792.00
2019-03-06T10:41:47.097Z,26528.00
2019-03-06T10:42:47.072Z,27712.00
2019-03-06T10:43:49.740Z,28160.00
2019-03-06T10:44:47.022Z,29568.00
2019-03-06T10:45:46.993Z,32000.00
2019-03-06T10:46:46.968Z,33280.00
2019-03-06T10:47:46.942Z,32288.00
2019-03-06T10:48:48.379Z,32960.00
2019-03-06T10:49:46.892Z,35648.00
2019-03-06T10:50:46.866Z,32896.00
2019-03-06T10:51:46.841Z,32224.00
2019-03-06T10:52:46.816Z,32768.00
2019-03-06T10:53:46.789Z,34560.00
2019-03-06T10:54:46.763Z,35200.00
2019-03-06T10:55:46.739Z,31520.00
2019-03-06T10:56:46.713Z,33920.00
2019-03-06T10:57:46.688Z,35776.00
2019-03-06T10:58:46.662Z,39680.00
2019-03-06T10:59:46.638Z,43904.00
2019-03-06T11:00:46.615Z,40096.00
2019-03-06T11:01:46.587Z,39392.00
2019-03-06T11:02:46.565Z,40576.00
2019-03-06T11:03:46.541Z,39424.00
2019-03-06T11:04:46.518Z,40512.00
2019-03-06T11:05:46.490Z,41120.00
2019-03-06T11:06:46.467Z,39488.00
2019-03-06T11:07:46.445Z,40160.00
2019-03-06T11:08:46.422Z,38368.00
2019-03-06T11:09:46.393Z,37312.00
2019-03-06T11:10:46.369Z,38144.00
2019-03-06T11:11:46.344Z,37760.00
2019-03-06T11:12:46.322Z,38304.00
2019-03-06T11:13:46.295Z,39520.00
2019-03-06T11:14:46.272Z,38368.00
2019-03-06T11:15:55.189Z,37504.00
2019-03-06T11:16:46.224Z,37248.00
2019-03-06T11:17:46.198Z,35904.00
2019-03-06T11:18:46.174Z,35328.00
2019-03-06T11:19:46.150Z,35200.00
2019-03-06T11:20:46.127Z,36704.00
2019-03-06T11:21:46.102Z,37472.00
2019-03-06T11:22:46.077Z,38752.00
2019-03-06T11:23:46.054Z,41664.00
2019-03-06T11:24:46.028Z,43008.00
2019-03-06T11:25:46.004Z,42048.00
2019-03-06T11:26:45.980Z,41792.00
2019-03-06T11:27:45.963Z,41536.00
2019-03-06T11:28:45.933Z,42368.00
2019-03-06T11:29:46.107Z,41152.00
2019-03-06T11:30:45.881Z,40896.00
2019-03-06T11:31:45.859Z,39680.00
2019-03-06T11:32:54.128Z,38144.00
2019-03-06T11:33:45.811Z,39552.00
2019-03-06T11:34:45.786Z,40096.00
2019-03-06T11:35:45.768Z,39712.00
2019-03-06T11:36:45.739Z,38528.00
2019-03-06T11:37:45.716Z,36128.00
2019-03-06T11:38:45.693Z,34400.00
2019-03-06T11:39:45.668Z,30016.00
2019-03-06T11:40:45.647Z,30624.00
2019-03-06T11:41:45.623Z,32224.00
2019-03-06T11:42:45.599Z,32640.00
2019-03-06T11:43:45.575Z,31136.00
2019-03-06T11:44:45.553Z,35936.00
2019-03-06T11:45:45.527Z,36928.00
2019-03-06T11:46:45.504Z,33984.00
2019-03-06T11:47:45.504Z,35136.00
2019-03-06T11:48:45.459Z,35648.00
2019-03-06T11:49:45.435Z,36224.00
2019-03-06T11:50:45.411Z,36320.00
2019-03-06T11:51:45.386Z,37312.00
2019-03-06T11:52:45.362Z,39648.00
2019-03-06T11:53:45.336Z,40096.00
2019-03-06T11:54:45.313Z,33376.00
2019-03-06T11:55:45.290Z,34432.00
2019-03-06T11:56:45.268Z,33344.00
2019-03-06T11:57:45.243Z,32768.00
2019-03-06T11:58:45.220Z,33152.00
2019-03-06T11:59:45.194Z,34560.00
2019-03-06T12:00:45.171Z,34880.00
2019-03-06T12:01:48.361Z,32608.00
2019-03-06T12:02:45.122Z,35552.00
2019-03-06T12:03:45.101Z,36672.00
2019-03-06T12:04:45.074Z,36896.00
2019-03-06T12:05:45.052Z,40384.00
2019-03-06T12:06:45.026Z,41728.00
2019-03-06T12:07:45.005Z,40832.00
2019-03-06T12:08:45.882Z,41088.00
2019-03-06T12:09:44.955Z,42752.00
2019-03-06T12:10:44.930Z,43392.00
2019-03-06T12:11:44.908Z,42752.00
2019-03-06T12:12:44.885Z,43360.00
2019-03-06T12:13:44.861Z,41216.00
2019-03-06T12:14:44.837Z,39232.00
2019-03-06T12:15:44.814Z,37472.00
2019-03-06T12:16:44.791Z,34784.00
2019-03-06T12:17:44.767Z,32224.00
2019-03-06T12:18:44.742Z,31296.00
2019-03-06T12:19:44.719Z,30272.00
2019-03-06T12:20:44.696Z,29664.00
2019-03-06T12:21:44.671Z,28992.00
2019-03-06T12:22:44.647Z,28000.00
2019-03-06T12:23:44.625Z,27424.00
2019-03-06T12:24:44.600Z,26784.00
2019-03-06T12:25:44.576Z,26528.00
2019-03-06T12:26:44.554Z,26656.00